Buckley Air Force Base
KBKF : now visible

Airfield :











YOU CAN JOIN US ON...

 
LOGIN :

Register | Disclaimer

   EN    FR    IT 

 









Legend :    VFR   Marginal VFR   IFR   Intensive IFR   Very Intensive IFR
Visi :
Ceiling :
>= 8 km
>= 3000ft
5 to 8 km
1000 to 3000 ft
1500m to 5 km
500 to 1000 ft
800 to 1500m
200 to 500 ft
< 800m
< 200 ft
Symbols :   Thunderstorms  Fog  Heavy snow  Heavy precipitations  Wind > 20 kt






- Airport Elevation : 5662 ft


KBKF - Buckley Air Force Base

CURRENT METAR :
  • 231658Z 18012KT 10SM FEW090 FEW220 23/M07 A2970 RMK AO2A SLP993 T02291070

EXPIRED METARs :
  • 231558Z 19014G19KT 10SM FEW090 FEW220 22/M06 A2971 RMK AO2A SLP996 T02201058
  • 231458Z 20015KT 10SM FEW090 FEW200 21/M05 A2972 RMK AO2A SLP000 T02061053 50002
  • 231358Z 19013KT 10SM FEW090 FEW200 18/M03 A2973 RMK AO2A SLP003 T01821033
  • 231258Z 19012KT 10SM FEW090 FEW180 15/M03 A2973 RMK AO2A SLP007 T01501029

TAF TAF KBKF
Valid from the 23 at 17:00 until the 24 at 23:00 UTC


231700Z 2317/2423 21012KT 9999 FEW100 QNH2956INS
BECMG 2321/2323 29012KT 9999 FEW110 QNH2947INS
BECMG 2407/2409 VRB06KT 9999 SKC QNH2974INS TX25/2321Z TN05/2412Z
KZDV FIR / North America



MET'MAP, your aeronautical weather chart ! - Copyright ORBIFLY December 2007 - Disclaimer

ORBIFLY MET'MAP TEAM :

Programming & Development : Alexandra Zaïnal
Original concept : Baudouin d'Aumeries
Technical & hardware support : Manuel Goepfert
Assistance : Marc-Olivier Méhu




SOURCES & CREDITS :

   NOAA       Earth
Advisory